sensor_id;sensor_type;location;lat;lon;timestamp;pressure;altitude;pressure_sealevel;temperature;humidity
7962;BME280;4026;43.652;24.906;2023-02-04T00:01:50;98878.91;;;2.21;100.00
7962;BME280;4026;43.652;24.906;2023-02-04T00:04:17;98874.75;;;2.20;100.00
7962;BME280;4026;43.652;24.906;2023-02-04T00:06:44;98869.03;;;2.16;100.00
7962;BME280;4026;43.652;24.906;2023-02-04T00:09:10;98864.78;;;2.17;100.00
7962;BME280;4026;43.652;24.906;2023-02-04T00:11:39;98858.84;;;2.18;100.00
7962;BME280;4026;43.652;24.906;2023-02-04T00:14:06;98862.34;;;2.15;100.00
7962;BME280;4026;43.652;24.906;2023-02-04T00:16:32;98860.50;;;2.19;100.00
7962;BME280;4026;43.652;24.906;2023-02-04T00:18:59;98845.75;;;2.10;100.00
7962;BME280;4026;43.652;24.906;2023-02-04T00:21:26;98843.00;;;2.16;100.00
7962;BME280;4026;43.652;24.906;2023-02-04T00:23:53;98836.66;;;2.26;100.00
7962;BME280;4026;43.652;24.906;2023-02-04T00:26:20;98836.66;;;2.26;100.00
7962;BME280;4026;43.652;24.906;2023-02-04T00:28:48;98833.50;;;2.21;100.00
7962;BME280;4026;43.652;24.906;2023-02-04T00:31:15;98820.72;;;2.25;100.00
7962;BME280;4026;43.652;24.906;2023-02-04T00:33:42;98813.53;;;2.16;100.00
7962;BME280;4026;43.652;24.906;2023-02-04T00:36:09;98807.84;;;2.11;100.00
7962;BME280;4026;43.652;24.906;2023-02-04T00:38:35;98795.50;;;2.05;100.00
7962;BME280;4026;43.652;24.906;2023-02-04T00:41:02;98798.59;;;2.12;100.00
7962;BME280;4026;43.652;24.906;2023-02-04T00:43:30;98781.69;;;2.14;100.00
7962;BME280;4026;43.652;24.906;2023-02-04T00:45:59;98761.91;;;2.04;100.00
7962;BME280;4026;43.652;24.906;2023-02-04T00:48:26;98770.47;;;2.00;100.00
7962;BME280;4026;43.652;24.906;2023-02-04T00:50:52;98767.66;;;2.08;100.00
7962;BME280;4026;43.652;24.906;2023-02-04T00:53:19;98768.72;;;2.02;100.00
7962;BME280;4026;43.652;24.906;2023-02-04T00:55:46;98763.00;;;1.99;100.00
7962;BME280;4026;43.652;24.906;2023-02-04T00:58:13;98765.44;;;2.00;100.00
7962;BME280;4026;43.652;24.906;2023-02-04T01:00:40;98750.06;;;2.07;100.00
7962;BME280;4026;43.652;24.906;2023-02-04T01:03:08;98749.09;;;2.09;100.00
7962;BME280;4026;43.652;24.906;2023-02-04T01:05:35;98745.28;;;2.00;100.00
7962;BME280;4026;43.652;24.906;2023-02-04T01:08:02;98740.09;;;2.03;100.00
7962;BME280;4026;43.652;24.906;2023-02-04T01:10:28;98740.34;;;1.97;100.00
7962;BME280;4026;43.652;24.906;2023-02-04T01:12:55;98733.56;;;1.99;100.00
7962;BME280;4026;43.652;24.906;2023-02-04T01:15:22;98725.38;;;1.94;100.00
7962;BME280;4026;43.652;24.906;2023-02-04T01:17:49;98724.03;;;2.06;100.00
7962;BME280;4026;43.652;24.906;2023-02-04T01:20:18;98715.03;;;2.19;100.00
7962;BME280;4026;43.652;24.906;2023-02-04T01:22:44;98715.00;;;2.00;100.00
7962;BME280;4026;43.652;24.906;2023-02-04T01:25:11;98711.50;;;2.04;100.00
7962;BME280;4026;43.652;24.906;2023-02-04T01:27:38;98707.31;;;2.03;100.00
7962;BME280;4026;43.652;24.906;2023-02-04T01:30:06;98704.94;;;2.00;100.00
7962;BME280;4026;43.652;24.906;2023-02-04T01:32:33;98699.88;;;2.00;100.00
7962;BME280;4026;43.652;24.906;2023-02-04T01:35:00;98699.66;;;2.07;100.00
7962;BME280;4026;43.652;24.906;2023-02-04T01:37:28;98689.28;;;2.13;100.00
7962;BME280;4026;43.652;24.906;2023-02-04T01:39:55;98685.09;;;2.12;100.00
7962;BME280;4026;43.652;24.906;2023-02-04T01:42:22;98686.00;;;2.11;100.00
7962;BME280;4026;43.652;24.906;2023-02-04T01:44:49;98686.97;;;2.08;100.00
7962;BME280;4026;43.652;24.906;2023-02-04T01:47:16;98695.16;;;2.13;100.00
7962;BME280;4026;43.652;24.906;2023-02-04T01:49:44;98682.44;;;2.15;100.00
7962;BME280;4026;43.652;24.906;2023-02-04T01:52:12;98677.41;;;2.15;100.00
7962;BME280;4026;43.652;24.906;2023-02-04T01:54:40;98674.03;;;2.16;100.00
7962;BME280;4026;43.652;24.906;2023-02-04T01:57:13;98675.84;;;2.31;100.00
7962;BME280;4026;43.652;24.906;2023-02-04T01:59:42;98664.19;;;2.29;100.00
7962;BME280;4026;43.652;24.906;2023-02-04T02:02:38;98655.56;;;2.33;100.00
7962;BME280;4026;43.652;24.906;2023-02-04T02:05:06;98653.28;;;2.28;100.00
7962;BME280;4026;43.652;24.906;2023-02-04T02:07:33;98658.31;;;2.28;100.00
7962;BME280;4026;43.652;24.906;2023-02-04T02:10:02;98656.13;;;2.39;100.00
7962;BME280;4026;43.652;24.906;2023-02-04T02:12:30;98645.16;;;2.40;100.00
7962;BME280;4026;43.652;24.906;2023-02-04T02:14:57;98633.28;;;2.42;100.00
7962;BME280;4026;43.652;24.906;2023-02-04T02:17:24;98630.16;;;2.37;100.00
7962;BME280;4026;43.652;24.906;2023-02-04T02:19:51;98625.19;;;2.36;100.00
7962;BME280;4026;43.652;24.906;2023-02-04T02:22:22;98613.59;;;2.32;100.00
7962;BME280;4026;43.652;24.906;2023-02-04T02:24:52;98613.31;;;2.38;100.00
7962;BME280;4026;43.652;24.906;2023-02-04T02:27:19;98613.72;;;2.47;100.00
7962;BME280;4026;43.652;24.906;2023-02-04T02:29:47;98607.16;;;2.43;100.00
7962;BME280;4026;43.652;24.906;2023-02-04T02:32:15;98612.88;;;2.47;100.00
7962;BME280;4026;43.652;24.906;2023-02-04T02:34:43;98598.72;;;2.44;100.00
7962;BME280;4026;43.652;24.906;2023-02-04T02:37:11;98595.53;;;2.58;100.00
7962;BME280;4026;43.652;24.906;2023-02-04T02:39:40;98594.50;;;2.62;100.00
7962;BME280;4026;43.652;24.906;2023-02-04T02:42:09;98601.13;;;2.65;100.00
7962;BME280;4026;43.652;24.906;2023-02-04T02:44:37;98600.22;;;2.66;100.00
7962;BME280;4026;43.652;24.906;2023-02-04T02:47:04;98593.59;;;2.63;100.00
7962;BME280;4026;43.652;24.906;2023-02-04T02:49:31;98601.69;;;2.70;100.00
7962;BME280;4026;43.652;24.906;2023-02-04T02:51:59;98602.59;;;2.69;100.00
7962;BME280;4026;43.652;24.906;2023-02-04T02:54:27;98599.16;;;2.70;100.00
7962;BME280;4026;43.652;24.906;2023-02-04T02:56:56;98592.03;;;2.61;100.00
7962;BME280;4026;43.652;24.906;2023-02-04T02:59:25;98585.75;;;2.69;100.00
7962;BME280;4026;43.652;24.906;2023-02-04T03:01:54;98580.63;;;2.88;100.00
7962;BME280;4026;43.652;24.906;2023-02-04T03:04:24;98578.53;;;2.79;100.00
7962;BME280;4026;43.652;24.906;2023-02-04T03:06:53;98570.22;;;2.77;100.00
7962;BME280;4026;43.652;24.906;2023-02-04T03:09:20;98570.16;;;2.79;100.00
7962;BME280;4026;43.652;24.906;2023-02-04T03:11:48;98570.38;;;2.74;100.00
7962;BME280;4026;43.652;24.906;2023-02-04T03:14:15;98565.63;;;3.03;100.00
7962;BME280;4026;43.652;24.906;2023-02-04T03:16:43;98566.03;;;2.93;100.00
7962;BME280;4026;43.652;24.906;2023-02-04T03:19:10;98556.41;;;2.84;100.00
7962;BME280;4026;43.652;24.906;2023-02-04T03:21:38;98551.91;;;2.91;100.00
7962;BME280;4026;43.652;24.906;2023-02-04T03:24:06;98543.78;;;2.84;100.00
7962;BME280;4026;43.652;24.906;2023-02-04T03:26:34;98540.38;;;2.85;100.00
7962;BME280;4026;43.652;24.906;2023-02-04T03:29:00;98552.09;;;2.86;100.00
7962;BME280;4026;43.652;24.906;2023-02-04T03:31:27;98541.09;;;2.87;100.00
7962;BME280;4026;43.652;24.906;2023-02-04T03:33:56;98544.69;;;2.83;100.00
7962;BME280;4026;43.652;24.906;2023-02-04T03:36:22;98544.22;;;2.92;100.00
7962;BME280;4026;43.652;24.906;2023-02-04T03:38:49;98546.91;;;2.89;100.00
7962;BME280;4026;43.652;24.906;2023-02-04T03:41:18;98538.28;;;2.93;100.00
7962;BME280;4026;43.652;24.906;2023-02-04T03:43:45;98535.91;;;2.90;100.00
7962;BME280;4026;43.652;24.906;2023-02-04T03:46:12;98536.44;;;2.97;100.00
7962;BME280;4026;43.652;24.906;2023-02-04T03:48:39;98540.22;;;3.06;100.00
7962;BME280;4026;43.652;24.906;2023-02-04T03:51:07;98535.81;;;3.09;100.00
7962;BME280;4026;43.652;24.906;2023-02-04T03:53:34;98531.41;;;3.13;100.00
7962;BME280;4026;43.652;24.906;2023-02-04T03:56:01;98527.97;;;3.14;100.00
7962;BME280;4026;43.652;24.906;2023-02-04T03:58:28;98515.94;;;3.19;100.00
7962;BME280;4026;43.652;24.906;2023-02-04T04:00:54;98517.66;;;3.18;100.00
7962;BME280;4026;43.652;24.906;2023-02-04T04:03:21;98514.00;;;3.24;100.00
7962;BME280;4026;43.652;24.906;2023-02-04T04:05:48;98509.38;;;3.32;100.00
7962;BME280;4026;43.652;24.906;2023-02-04T04:08:16;98512.97;;;3.44;100.00
7962;BME280;4026;43.652;24.906;2023-02-04T04:10:43;98511.25;;;3.45;100.00
7962;BME280;4026;43.652;24.906;2023-02-04T04:13:10;98508.47;;;3.33;100.00
7962;BME280;4026;43.652;24.906;2023-02-04T04:15:37;98512.22;;;3.26;100.00
7962;BME280;4026;43.652;24.906;2023-02-04T04:18:04;98504.31;;;3.32;100.00
7962;BME280;4026;43.652;24.906;2023-02-04T04:20:30;98504.75;;;3.40;100.00
7962;BME280;4026;43.652;24.906;2023-02-04T04:22:57;98501.78;;;3.32;100.00
7962;BME280;4026;43.652;24.906;2023-02-04T04:25:26;98503.56;;;3.30;100.00
7962;BME280;4026;43.652;24.906;2023-02-04T04:27:52;98501.78;;;3.32;100.00
7962;BME280;4026;43.652;24.906;2023-02-04T04:30:19;98507.78;;;3.14;100.00
7962;BME280;4026;43.652;24.906;2023-02-04T04:32:46;98506.91;;;3.15;100.00
7962;BME280;4026;43.652;24.906;2023-02-04T04:35:13;98505.34;;;3.12;100.00
7962;BME280;4026;43.652;24.906;2023-02-04T04:37:40;98503.63;;;3.13;100.00
7962;BME280;4026;43.652;24.906;2023-02-04T04:40:09;98506.59;;;3.21;100.00
7962;BME280;4026;43.652;24.906;2023-02-04T04:42:38;98516.25;;;3.13;100.00
7962;BME280;4026;43.652;24.906;2023-02-04T04:45:07;98506.16;;;3.13;100.00
7962;BME280;4026;43.652;24.906;2023-02-04T04:47:34;98510.56;;;3.09;100.00
7962;BME280;4026;43.652;24.906;2023-02-04T04:50:01;98508.03;;;3.25;100.00
7962;BME280;4026;43.652;24.906;2023-02-04T04:52:27;98510.25;;;3.15;100.00
7962;BME280;4026;43.652;24.906;2023-02-04T04:54:54;98518.56;;;3.17;100.00
7962;BME280;4026;43.652;24.906;2023-02-04T04:57:21;98516.19;;;3.14;100.00
7962;BME280;4026;43.652;24.906;2023-02-04T04:59:49;98515.72;;;3.24;100.00
7962;BME280;4026;43.652;24.906;2023-02-04T05:02:16;98520.19;;;3.18;100.00
7962;BME280;4026;43.652;24.906;2023-02-04T05:04:43;98524.59;;;3.15;100.00
7962;BME280;4026;43.652;24.906;2023-02-04T05:07:10;98526.31;;;3.14;100.00
7962;BME280;4026;43.652;24.906;2023-02-04T05:09:37;98521.09;;;3.17;100.00
7962;BME280;4026;43.652;24.906;2023-02-04T05:12:04;98524.59;;;3.15;100.00
7962;BME280;4026;43.652;24.906;2023-02-04T05:14:31;98515.34;;;3.14;100.00
7962;BME280;4026;43.652;24.906;2023-02-04T05:16:59;98519.09;;;3.07;100.00
7962;BME280;4026;43.652;24.906;2023-02-04T05:19:26;98506.47;;;3.07;100.00
7962;BME280;4026;43.652;24.906;2023-02-04T05:21:53;98511.22;;;3.13;100.00
7962;BME280;4026;43.652;24.906;2023-02-04T05:24:21;98513.72;;;3.13;100.00
7962;BME280;4026;43.652;24.906;2023-02-04T05:26:48;98514.97;;;3.06;100.00
7962;BME280;4026;43.652;24.906;2023-02-04T05:29:15;98520.72;;;3.08;100.00
7962;BME280;4026;43.652;24.906;2023-02-04T05:31:42;98521.63;;;3.07;100.00
7962;BME280;4026;43.652;24.906;2023-02-04T05:34:10;98523.25;;;3.08;100.00
7962;BME280;4026;43.652;24.906;2023-02-04T05:36:37;98529.94;;;3.09;100.00
7962;BME280;4026;43.652;24.906;2023-02-04T05:39:04;98524.22;;;3.05;100.00
7962;BME280;4026;43.652;24.906;2023-02-04T05:41:31;98525.63;;;3.11;100.00
7962;BME280;4026;43.652;24.906;2023-02-04T05:43:57;98518.88;;;3.11;100.00
7962;BME280;4026;43.652;24.906;2023-02-04T05:46:24;98526.53;;;3.10;100.00
7962;BME280;4026;43.652;24.906;2023-02-04T05:48:51;98526.38;;;3.13;100.00
7962;BME280;4026;43.652;24.906;2023-02-04T05:51:19;98526.03;;;3.19;100.00
7962;BME280;4026;43.652;24.906;2023-02-04T05:53:46;98522.88;;;3.15;100.00
7962;BME280;4026;43.652;24.906;2023-02-04T05:56:14;98522.50;;;3.23;100.00
7962;BME280;4026;43.652;24.906;2023-02-04T05:58:40;98526.19;;;3.16;100.00
7962;BME280;4026;43.652;24.906;2023-02-04T06:01:07;98523.53;;;3.19;100.00
7962;BME280;4026;43.652;24.906;2023-02-04T06:03:34;98527.69;;;3.20;100.00
7962;BME280;4026;43.652;24.906;2023-02-04T06:06:01;98529.97;;;3.25;100.00
7962;BME280;4026;43.652;24.906;2023-02-04T06:08:29;98528.34;;;3.24;100.00
7962;BME280;4026;43.652;24.906;2023-02-04T06:10:56;98530.63;;;3.28;100.00
7962;BME280;4026;43.652;24.906;2023-02-04T06:13:23;98534.22;;;3.24;100.00
7962;BME280;4026;43.652;24.906;2023-02-04T06:15:50;98535.69;;;3.28;100.00
7962;BME280;4026;43.652;24.906;2023-02-04T06:18:17;98530.47;;;3.31;100.00
7962;BME280;4026;43.652;24.906;2023-02-04T06:20:43;98528.69;;;3.33;100.00
7962;BME280;4026;43.652;24.906;2023-02-04T06:23:10;98538.63;;;3.36;100.00
7962;BME280;4026;43.652;24.906;2023-02-04T06:25:38;98535.06;;;3.40;100.00
7962;BME280;4026;43.652;24.906;2023-02-04T06:28:05;98541.91;;;3.38;100.00
7962;BME280;4026;43.652;24.906;2023-02-04T06:30:32;98533.56;;;3.36;100.00
7962;BME280;4026;43.652;24.906;2023-02-04T06:32:59;98533.41;;;3.39;100.00
7962;BME280;4026;43.652;24.906;2023-02-04T06:35:26;98541.31;;;3.33;100.00
7962;BME280;4026;43.652;24.906;2023-02-04T06:37:53;98533.41;;;3.39;100.00
7962;BME280;4026;43.652;24.906;2023-02-04T06:40:19;98535.94;;;3.39;100.00
7962;BME280;4026;43.652;24.906;2023-02-04T06:42:48;98546.00;;;3.41;100.00
7962;BME280;4026;43.652;24.906;2023-02-04T06:45:15;98545.19;;;3.40;100.00
7962;BME280;4026;43.652;24.906;2023-02-04T06:47:42;98542.56;;;3.42;100.00
7962;BME280;4026;43.652;24.906;2023-02-04T06:50:09;98541.00;;;3.39;100.00
7962;BME280;4026;43.652;24.906;2023-02-04T06:52:36;98540.13;;;3.40;100.00
7962;BME280;4026;43.652;24.906;2023-02-04T06:55:03;98545.88;;;3.43;100.00
7962;BME280;4026;43.652;24.906;2023-02-04T06:57:31;98538.25;;;3.44;100.00
7962;BME280;4026;43.652;24.906;2023-02-04T07:00:00;98544.16;;;3.43;100.00
7962;BME280;4026;43.652;24.906;2023-02-04T07:02:26;98547.44;;;3.45;100.00
7962;BME280;4026;43.652;24.906;2023-02-04T07:04:53;98552.75;;;3.40;100.00
7962;BME280;4026;43.652;24.906;2023-02-04T07:07:20;98556.91;;;3.57;100.00
7962;BME280;4026;43.652;24.906;2023-02-04T07:09:47;98550.22;;;3.40;100.00
7962;BME280;4026;43.652;24.906;2023-02-04T07:12:14;98543.84;;;3.33;100.00
7962;BME280;4026;43.652;24.906;2023-02-04T07:14:41;98547.13;;;3.35;100.00
7962;BME280;4026;43.652;24.906;2023-02-04T07:17:09;98541.47;;;3.30;100.00
7962;BME280;4026;43.652;24.906;2023-02-04T07:19:36;98546.94;;;3.38;100.00
7962;BME280;4026;43.652;24.906;2023-02-04T07:22:03;98546.94;;;3.38;100.00
7962;BME280;4026;43.652;24.906;2023-02-04T07:24:30;98536.25;;;3.33;100.00
7962;BME280;4026;43.652;24.906;2023-02-04T07:26:57;98541.75;;;3.42;100.00
7962;BME280;4026;43.652;24.906;2023-02-04T07:29:24;98544.44;;;3.38;100.00
7962;BME280;4026;43.652;24.906;2023-02-04T07:31:51;98546.22;;;3.36;100.00
7962;BME280;4026;43.652;24.906;2023-02-04T07:34:19;98542.56;;;3.42;100.00
7962;BME280;4026;43.652;24.906;2023-02-04T07:36:46;98546.00;;;3.41;100.00
7962;BME280;4026;43.652;24.906;2023-02-04T07:39:13;98544.69;;;3.50;100.00
7962;BME280;4026;43.652;24.906;2023-02-04T07:41:40;98544.69;;;3.50;100.00
7962;BME280;4026;43.652;24.906;2023-02-04T07:44:07;98549.59;;;3.53;100.00
7962;BME280;4026;43.652;24.906;2023-02-04T07:46:34;98551.78;;;3.59;100.00
7962;BME280;4026;43.652;24.906;2023-02-04T07:49:01;98551.69;;;3.60;100.00
7962;BME280;4026;43.652;24.906;2023-02-04T07:51:29;98552.22;;;3.67;100.00
7962;BME280;4026;43.652;24.906;2023-02-04T07:53:56;98550.09;;;3.75;100.00
7962;BME280;4026;43.652;24.906;2023-02-04T07:56:23;98556.03;;;3.74;100.00
7962;BME280;4026;43.652;24.906;2023-02-04T07:58:49;98554.81;;;3.81;100.00
7962;BME280;4026;43.652;24.906;2023-02-04T08:01:16;98554.16;;;3.94;100.00
7962;BME280;4026;43.652;24.906;2023-02-04T08:03:43;98557.16;;;4.00;100.00
7962;BME280;4026;43.652;24.906;2023-02-04T08:06:10;98550.06;;;4.07;100.00
7962;BME280;4026;43.652;24.906;2023-02-04T08:08:38;98561.50;;;4.14;100.00
7962;BME280;4026;43.652;24.906;2023-02-04T08:11:05;98559.38;;;4.22;100.00
7962;BME280;4026;43.652;24.906;2023-02-04T08:13:32;98561.00;;;4.23;100.00
7962;BME280;4026;43.652;24.906;2023-02-04T08:15:59;98562.31;;;4.30;100.00
7962;BME280;4026;43.652;24.906;2023-02-04T08:18:25;98561.47;;;4.30;100.00
7962;BME280;4026;43.652;24.906;2023-02-04T08:20:53;98561.38;;;4.31;100.00
7962;BME280;4026;43.652;24.906;2023-02-04T08:23:20;98559.97;;;4.42;100.00
7962;BME280;4026;43.652;24.906;2023-02-04T08:25:48;98554.56;;;4.48;100.00
7962;BME280;4026;43.652;24.906;2023-02-04T08:28:15;98562.66;;;4.54;100.00
7962;BME280;4026;43.652;24.906;2023-02-04T08:30:42;98558.56;;;4.52;100.00
7962;BME280;4026;43.652;24.906;2023-02-04T08:33:09;98560.00;;;4.56;100.00
7962;BME280;4026;43.652;24.906;2023-02-04T08:35:36;98564.03;;;4.60;100.00
7962;BME280;4026;43.652;24.906;2023-02-04T08:38:03;98560.22;;;4.67;100.00
7962;BME280;4026;43.652;24.906;2023-02-04T08:40:29;98558.25;;;4.72;100.00
7962;BME280;4026;43.652;24.906;2023-02-04T08:42:58;98567.69;;;4.85;100.00
7962;BME280;4026;43.652;24.906;2023-02-04T08:45:25;98560.81;;;4.87;100.00
7962;BME280;4026;43.652;24.906;2023-02-04T08:47:51;98568.09;;;5.07;100.00
7962;BME280;4026;43.652;24.906;2023-02-04T08:50:18;98563.38;;;5.01;100.00
7962;BME280;4026;43.652;24.906;2023-02-04T08:52:45;98567.47;;;5.04;100.00
7962;BME280;4026;43.652;24.906;2023-02-04T08:55:12;98569.25;;;5.02;100.00
7962;BME280;4026;43.652;24.906;2023-02-04T08:57:40;98568.44;;;5.01;100.00
7962;BME280;4026;43.652;24.906;2023-02-04T09:00:10;98563.75;;;5.09;100.00
7962;BME280;4026;43.652;24.906;2023-02-04T09:02:37;98568.25;;;5.04;100.00
7962;BME280;4026;43.652;24.906;2023-02-04T09:05:04;98569.16;;;5.17;100.00
7962;BME280;4026;43.652;24.906;2023-02-04T09:07:31;98575.50;;;5.10;100.00
7962;BME280;4026;43.652;24.906;2023-02-04T09:09:58;98575.88;;;5.18;100.00
7962;BME280;4026;43.652;24.906;2023-02-04T09:12:25;98576.06;;;5.30;100.00
7962;BME280;4026;43.652;24.906;2023-02-04T09:14:52;98575.88;;;5.33;100.00
7962;BME280;4026;43.652;24.906;2023-02-04T09:17:20;98574.25;;;5.32;100.00
7962;BME280;4026;43.652;24.906;2023-02-04T09:19:47;98576.16;;;5.28;100.00
7962;BME280;4026;43.652;24.906;2023-02-04T09:22:14;98572.44;;;5.19;100.00
7962;BME280;4026;43.652;24.906;2023-02-04T09:24:40;98571.16;;;5.12;100.00
7962;BME280;4026;43.652;24.906;2023-02-04T09:27:07;98574.78;;;5.22;100.00
7962;BME280;4026;43.652;24.906;2023-02-04T09:29:34;98579.13;;;5.20;100.00
7962;BME280;4026;43.652;24.906;2023-02-04T09:32:01;98582.22;;;5.40;100.00
7962;BME280;4026;43.652;24.906;2023-02-04T09:34:29;98580.03;;;5.34;100.00
7962;BME280;4026;43.652;24.906;2023-02-04T09:36:56;98580.78;;;5.21;100.00
7962;BME280;4026;43.652;24.906;2023-02-04T09:39:23;98572.81;;;5.28;100.00
7962;BME280;4026;43.652;24.906;2023-02-04T09:41:50;98566.09;;;5.41;100.00
7962;BME280;4026;43.652;24.906;2023-02-04T09:44:21;98568.09;;;5.36;100.00
7962;BME280;4026;43.652;24.906;2023-02-04T09:46:52;98578.31;;;5.49;100.00
7962;BME280;4026;43.652;24.906;2023-02-04T09:49:19;98570.63;;;5.50;100.00
7962;BME280;4026;43.652;24.906;2023-02-04T09:51:48;98573.59;;;5.57;100.00
7962;BME280;4026;43.652;24.906;2023-02-04T09:54:17;98570.06;;;5.74;100.00
7962;BME280;4026;43.652;24.906;2023-02-04T09:56:45;98561.50;;;5.89;100.00
7962;BME280;4026;43.652;24.906;2023-02-04T09:59:14;98566.38;;;5.92;100.00
7962;BME280;4026;43.652;24.906;2023-02-04T10:01:41;98562.25;;;5.91;100.00
7962;BME280;4026;43.652;24.906;2023-02-04T10:04:10;98569.31;;;6.00;100.00
7962;BME280;4026;43.652;24.906;2023-02-04T10:06:39;98562.84;;;6.36;100.00
7962;BME280;4026;43.652;24.906;2023-02-04T10:09:10;98553.19;;;6.81;100.00
7962;BME280;4026;43.652;24.906;2023-02-04T10:11:38;98549.00;;;6.80;100.00
7962;BME280;4026;43.652;24.906;2023-02-04T10:14:10;98557.78;;;7.01;100.00
7962;BME280;4026;43.652;24.906;2023-02-04T10:16:39;98553.06;;;7.83;100.00
7962;BME280;4026;43.652;24.906;2023-02-04T10:19:12;98553.78;;;8.33;100.00
7962;BME280;4026;43.652;24.906;2023-02-04T10:21:40;98551.84;;;8.13;100.00
7962;BME280;4026;43.652;24.906;2023-02-04T10:24:13;98556.72;;;8.40;100.00
7962;BME280;4026;43.652;24.906;2023-02-04T10:26:40;98554.47;;;8.59;100.00
7962;BME280;4026;43.652;24.906;2023-02-04T10:29:12;98555.59;;;8.91;100.00
7962;BME280;4026;43.652;24.906;2023-02-04T10:31:41;98556.78;;;9.09;98.93
7962;BME280;4026;43.652;24.906;2023-02-04T10:34:12;98549.59;;;9.14;97.50
7962;BME280;4026;43.652;24.906;2023-02-04T10:36:41;98543.56;;;9.04;95.02
7962;BME280;4026;43.652;24.906;2023-02-04T10:39:14;98546.84;;;9.40;96.43
7962;BME280;4026;43.652;24.906;2023-02-04T10:41:46;98543.50;;;9.94;94.79
7962;BME280;4026;43.652;24.906;2023-02-04T10:44:15;98543.56;;;9.38;90.50
7962;BME280;4026;43.652;24.906;2023-02-04T10:46:42;98536.47;;;8.38;97.34
7962;BME280;4026;43.652;24.906;2023-02-04T10:49:17;98537.22;;;8.04;100.00
7962;BME280;4026;43.652;24.906;2023-02-04T10:51:45;98536.50;;;8.26;100.00
7962;BME280;4026;43.652;24.906;2023-02-04T10:54:15;98533.03;;;8.27;100.00
7962;BME280;4026;43.652;24.906;2023-02-04T10:57:05;98535.25;;;7.83;100.00
7962;BME280;4026;43.652;24.906;2023-02-04T10:59:33;98538.38;;;7.63;100.00
7962;BME280;4026;43.652;24.906;2023-02-04T11:02:25;98536.84;;;7.47;100.00
7962;BME280;4026;43.652;24.906;2023-02-04T11:04:48;98536.69;;;7.51;100.00
7962;BME280;4026;43.652;24.906;2023-02-04T11:07:22;98538.00;;;7.43;100.00
7962;BME280;4026;43.652;24.906;2023-02-04T11:09:50;98536.16;;;7.45;100.00
7962;BME280;4026;43.652;24.906;2023-02-04T11:12:19;98529.66;;;7.41;100.00
7962;BME280;4026;43.652;24.906;2023-02-04T11:14:54;98531.88;;;7.46;100.00
7962;BME280;4026;43.652;24.906;2023-02-04T11:17:28;98537.41;;;7.40;100.00
7962;BME280;4026;43.652;24.906;2023-02-04T11:19:56;98538.00;;;7.43;100.00
7962;BME280;4026;43.652;24.906;2023-02-04T11:22:36;98533.97;;;7.28;100.00
7962;BME280;4026;43.652;24.906;2023-02-04T11:25:32;98533.53;;;7.34;100.00
7962;BME280;4026;43.652;24.906;2023-02-04T11:27:59;98531.88;;;7.46;100.00
7962;BME280;4026;43.652;24.906;2023-02-04T11:30:31;98523.97;;;7.51;100.00
7962;BME280;4026;43.652;24.906;2023-02-04T11:33:01;98524.47;;;7.43;100.00
7962;BME280;4026;43.652;24.906;2023-02-04T11:35:29;98523.16;;;7.37;100.00
7962;BME280;4026;43.652;24.906;2023-02-04T11:37:56;98524.19;;;7.22;100.00
7962;BME280;4026;43.652;24.906;2023-02-04T11:40:29;98525.44;;;7.16;100.00
7962;BME280;4026;43.652;24.906;2023-02-04T11:43:02;98520.44;;;7.15;100.00
7962;BME280;4026;43.652;24.906;2023-02-04T11:45:31;98526.13;;;7.06;100.00
7962;BME280;4026;43.652;24.906;2023-02-04T11:48:01;98523.09;;;7.00;100.00
7962;BME280;4026;43.652;24.906;2023-02-04T11:50:31;98518.53;;;6.93;100.00
7962;BME280;4026;43.652;24.906;2023-02-04T11:52:59;98520.66;;;6.99;100.00
7962;BME280;4026;43.652;24.906;2023-02-04T11:55:28;98518.63;;;7.04;100.00
7962;BME280;4026;43.652;24.906;2023-02-04T11:57:56;98512.81;;;6.89;100.00
7962;BME280;4026;43.652;24.906;2023-02-04T12:00:26;98505.50;;;6.97;100.00
7962;BME280;4026;43.652;24.906;2023-02-04T12:02:55;98511.72;;;6.93;100.00
7962;BME280;4026;43.652;24.906;2023-02-04T12:05:35;98511.81;;;6.92;100.00
7962;BME280;4026;43.652;24.906;2023-02-04T12:08:11;98514.06;;;6.96;100.00
7962;BME280;4026;43.652;24.906;2023-02-04T12:10:47;98503.66;;;6.74;100.00
7962;BME280;4026;43.652;24.906;2023-02-04T12:13:17;98502.97;;;6.85;100.00
7962;BME280;4026;43.652;24.906;2023-02-04T12:15:54;98507.94;;;6.86;100.00
7962;BME280;4026;43.652;24.906;2023-02-04T12:18:23;98501.66;;;6.79;100.00
7962;BME280;4026;43.652;24.906;2023-02-04T12:20:52;98501.72;;;6.77;100.00
7962;BME280;4026;43.652;24.906;2023-02-04T12:23:19;98500.84;;;6.78;100.00
7962;BME280;4026;43.652;24.906;2023-02-04T12:25:46;98494.94;;;6.78;100.00
7962;BME280;4026;43.652;24.906;2023-02-04T12:28:13;98488.63;;;6.96;100.00
7962;BME280;4026;43.652;24.906;2023-02-04T12:30:40;98493.16;;;7.30;100.00
7962;BME280;4026;43.652;24.906;2023-02-04T12:33:08;98491.28;;;7.57;100.00
7962;BME280;4026;43.652;24.906;2023-02-04T12:35:35;98485.84;;;7.62;100.00
7962;BME280;4026;43.652;24.906;2023-02-04T12:38:03;98496.91;;;7.98;100.00
7962;BME280;4026;43.652;24.906;2023-02-04T12:40:30;98490.47;;;7.81;100.00
7962;BME280;4026;43.652;24.906;2023-02-04T12:42:57;98490.69;;;7.78;100.00
7962;BME280;4026;43.652;24.906;2023-02-04T12:45:24;98487.28;;;7.90;100.00
7962;BME280;4026;43.652;24.906;2023-02-04T12:47:50;98488.19;;;8.13;100.00
7962;BME280;4026;43.652;24.906;2023-02-04T12:50:19;98489.84;;;8.25;100.00
7962;BME280;4026;43.652;24.906;2023-02-04T12:52:48;98489.63;;;8.28;100.00
7962;BME280;4026;43.652;24.906;2023-02-04T12:55:15;98489.63;;;8.28;100.00
7962;BME280;4026;43.652;24.906;2023-02-04T12:57:42;98490.75;;;8.48;100.00
7962;BME280;4026;43.652;24.906;2023-02-04T13:00:10;98493.66;;;8.44;99.71
7962;BME280;4026;43.652;24.906;2023-02-04T13:02:38;98488.81;;;8.63;100.00
7962;BME280;4026;43.652;24.906;2023-02-04T13:05:05;98483.97;;;8.71;99.96
7962;BME280;4026;43.652;24.906;2023-02-04T13:07:34;98488.59;;;8.77;100.00
7962;BME280;4026;43.652;24.906;2023-02-04T13:10:02;98484.91;;;8.70;97.25
7962;BME280;4026;43.652;24.906;2023-02-04T13:12:29;98493.44;;;8.47;94.77
7962;BME280;4026;43.652;24.906;2023-02-04T13:14:56;98495.66;;;8.27;95.88
7962;BME280;4026;43.652;24.906;2023-02-04T13:17:23;98493.88;;;7.92;99.68